Time;durP1;ratioP1;P1;durP2;ratioP2;P2;SDS_P1;SDS_P2;PMS_P1;PMS_P2;Temp;Humidity;BMP_temperature;BMP_pressure;BME280_temperature;BME280_humidity;BME280_pressure;Samples;Min_cycle;Max_cycle;Signal;HPM_P1;HPM_P2
2021/12/20 00:00:58;;;;;;;11.97;6.27;;;7.80;99.90;;;;;;2614172;39;20916;-74
2021/12/20 00:03:24;;;;;;;6.63;5.03;;;7.70;99.90;;;;;;2612954;54;20383;-73
2021/12/20 00:05:51;;;;;;;7.20;5.03;;;8.00;99.90;;;;;;2613532;54;20438;-73
2021/12/20 00:08:18;;;;;;;13.37;6.07;;;7.90;99.90;;;;;;2613432;49;20411;-73
2021/12/20 00:10:45;;;;;;;7.80;5.20;;;8.10;99.90;;;;;;2613668;54;20412;-73
2021/12/20 00:13:11;;;;;;;12.30;5.50;;;8.30;99.90;;;;;;2613792;54;20535;-72
2021/12/20 00:15:37;;;;;;;12.73;7.40;;;8.00;99.90;;;;;;2614899;54;20447;-73
2021/12/20 00:18:02;;;;;;;23.73;6.57;;;7.90;99.90;;;;;;2614539;54;20155;-75
2021/12/20 00:20:28;;;;;;;7.30;5.40;;;7.60;99.90;;;;;;2614905;54;20956;-73
2021/12/20 00:22:54;;;;;;;13.37;6.00;;;8.00;99.90;;;;;;2614554;54;20552;-73
2021/12/20 00:25:20;;;;;;;9.90;4.70;;;8.20;99.90;;;;;;2614366;54;20422;-74
2021/12/20 00:27:46;;;;;;;12.93;5.60;;;8.20;99.90;;;;;;2614049;54;20163;-72
2021/12/20 00:30:14;;;;;;;15.93;5.60;;;8.60;99.90;;;;;;2614454;54;20527;-73
2021/12/20 00:32:40;;;;;;;9.70;4.93;;;8.30;99.90;;;;;;2614202;54;20399;-72
2021/12/20 00:35:07;;;;;;;14.83;5.47;;;7.80;99.90;;;;;;2614732;54;20431;-74
2021/12/20 00:40:23;;;;;;;13.10;5.97;;;7.80;99.90;;;;;;2614650;51;20450;-73
2021/12/20 00:42:54;;;;;;;12.43;5.63;;;8.20;99.90;;;;;;2614451;54;20407;-74
2021/12/20 00:45:22;;;;;;;14.57;5.90;;;8.40;99.90;;;;;;2616077;31;20855;-73
2021/12/20 00:47:48;;;;;;;11.77;5.57;;;7.90;99.90;;;;;;2613515;54;20964;-74
2021/12/20 00:50:16;;;;;;;12.60;4.90;;;8.10;99.90;;;;;;2615065;39;20816;-73
2021/12/20 00:52:43;;;;;;;18.53;5.37;;;8.00;99.90;;;;;;2615725;54;20411;-73
2021/12/20 00:55:10;;;;;;;11.37;5.40;;;7.70;99.90;;;;;;2615772;39;20910;-73
2021/12/20 00:57:36;;;;;;;10.87;4.60;;;7.40;99.90;;;;;;2615197;54;20408;-73
2021/12/20 01:00:07;;;;;;;16.00;6.73;;;7.50;99.90;;;;;;2616306;39;20804;-75
2021/12/20 01:02:33;;;;;;;20.03;5.97;;;7.70;99.90;;;;;;2614312;54;20432;-74
2021/12/20 01:04:59;;;;;;;14.47;5.10;;;8.00;99.90;;;;;;2615273;54;20443;-73
2021/12/20 01:07:25;;;;;;;11.90;4.80;;;8.10;99.90;;;;;;2615405;54;20199;-73
2021/12/20 01:09:53;;;;;;;10.87;4.80;;;7.80;99.90;;;;;;2615079;47;20517;-73
2021/12/20 01:12:20;;;;;;;15.40;4.97;;;7.50;99.90;;;;;;2614830;54;20162;-73
2021/12/20 01:14:46;;;;;;;11.87;4.90;;;7.40;99.90;;;;;;2615468;54;20509;-74
2021/12/20 01:17:13;;;;;;;14.30;4.40;;;7.30;99.90;;;;;;2614851;54;20428;-73
2021/12/20 01:19:39;;;;;;;9.80;4.60;;;7.40;99.90;;;;;;2615375;54;20964;-73
2021/12/20 01:22:06;;;;;;;20.83;4.87;;;7.50;99.90;;;;;;2614659;54;20411;-73
2021/12/20 01:24:32;;;;;;;15.73;4.10;;;7.50;99.90;;;;;;2615354;47;20454;-75
2021/12/20 01:26:58;;;;;;;17.90;6.07;;;7.90;99.90;;;;;;2614566;47;20451;-73
2021/12/20 01:29:24;;;;;;;16.03;5.53;;;7.90;99.90;;;;;;2615872;54;20427;-73
2021/12/20 01:31:50;;;;;;;10.57;5.70;;;7.90;99.90;;;;;;2614574;54;20145;-72
2021/12/20 01:34:16;;;;;;;20.60;5.30;;;7.70;99.90;;;;;;2615987;54;20262;-73
2021/12/20 01:36:42;;;;;;;11.93;3.47;;;7.60;99.90;;;;;;2615503;54;20446;-73
2021/12/20 01:39:09;;;;;;;17.43;4.40;;;7.90;99.90;;;;;;2614612;54;20403;-73
2021/12/20 01:41:41;;;;;;;16.37;3.93;;;7.90;99.90;;;;;;2615952;39;20821;-72
2021/12/20 01:44:08;;;;;;;9.27;3.73;;;8.00;99.90;;;;;;2616215;54;20430;-73
2021/12/20 01:46:35;;;;;;;16.30;4.40;;;7.60;99.90;;;;;;2615885;54;20468;-72
2021/12/20 01:49:03;;;;;;;16.93;5.10;;;7.50;99.90;;;;;;2615403;54;20411;-73
2021/12/20 01:53:59;;;;;;;16.23;4.33;;;8.20;99.90;;;;;;2614953;47;20571;-74
2021/12/20 01:56:26;;;;;;;12.53;4.03;;;8.40;99.90;;;;;;2615343;46;20415;-72
2021/12/20 01:58:51;;;;;;;12.47;3.33;;;8.60;99.90;;;;;;2615157;39;20753;-73
2021/12/20 02:01:20;;;;;;;14.70;4.67;;;8.40;99.90;;;;;;2613760;54;20419;-75
2021/12/20 02:03:51;;;;;;;23.03;5.10;;;8.70;99.90;;;;;;2614210;54;20169;-73
2021/12/20 02:08:53;;;;;;;16.13;4.67;;;8.90;99.90;;;;;;2614088;54;20402;-74
2021/12/20 02:11:20;;;;;;;11.10;4.13;;;8.50;99.90;;;;;;2613689;54;20451;-74
2021/12/20 02:13:46;;;;;;;17.70;4.10;;;8.80;99.90;;;;;;2614966;54;20431;-73
2021/12/20 02:16:12;;;;;;;13.60;4.93;;;9.00;99.90;;;;;;2614101;54;20427;-73
2021/12/20 02:18:37;;;;;;;13.10;3.90;;;8.70;99.90;;;;;;2614392;39;20828;-74
2021/12/20 02:21:04;;;;;;;18.80;4.93;;;9.10;99.90;;;;;;2613920;51;20166;-72
2021/12/20 02:23:30;;;;;;;20.10;5.93;;;9.20;99.90;;;;;;2613689;47;20197;-75
2021/12/20 02:25:56;;;;;;;10.97;4.17;;;9.40;99.90;;;;;;2613838;54;21019;-74
2021/12/20 02:28:23;;;;;;;40.53;9.67;;;9.30;99.90;;;;;;2613637;47;20423;-73
2021/12/20 02:38:46;;;;;;;14.73;4.80;;;8.90;99.90;;;;;;2614785;54;20463;-74
2021/12/20 02:41:26;;;;;;;9.13;4.10;;;8.90;99.90;;;;;;2613715;54;20466;-72
2021/12/20 02:43:56;;;;;;;14.20;4.70;;;8.60;99.90;;;;;;2614838;54;20446;-72
2021/12/20 02:49:24;;;;;;;12.00;4.10;;;8.10;99.90;;;;;;2615267;54;21087;-73
2021/12/20 02:51:53;;;;;;;8.83;4.20;;;7.80;99.90;;;;;;2613428;48;21527;-74
2021/12/20 02:54:21;;;;;;;19.63;5.67;;;7.90;99.90;;;;;;2613750;54;20400;-74
2021/12/20 02:56:48;;;;;;;15.30;4.60;;;7.70;99.90;;;;;;2613760;47;20434;-74
2021/12/20 02:59:15;;;;;;;16.93;5.17;;;8.10;99.90;;;;;;2614555;54;20427;-72
2021/12/20 03:01:47;;;;;;;20.43;4.90;;;8.20;99.90;;;;;;2614263;47;20411;-76
2021/12/20 03:04:14;;;;;;;16.13;4.63;;;8.10;99.90;;;;;;2615282;54;20960;-72
2021/12/20 03:06:48;;;;;;;12.40;4.20;;;8.00;99.90;;;;;;2614481;54;20419;-73
2021/12/20 03:09:17;;;;;;;11.50;3.93;;;7.90;99.90;;;;;;2614207;54;20419;-72
2021/12/20 03:11:45;;;;;;;14.50;3.90;;;7.90;99.90;;;;;;2614729;39;21330;-72
2021/12/20 03:14:23;;;;;;;11.10;4.50;;;7.60;99.90;;;;;;2613750;54;20996;-75
2021/12/20 03:16:50;;;;;;;24.50;5.20;;;8.00;99.90;;;;;;2614636;54;20484;-75
2021/12/20 03:19:16;;;;;;;14.00;4.07;;;8.30;99.90;;;;;;2614940;54;20419;-72
2021/12/20 03:21:42;;;;;;;9.67;3.57;;;8.40;99.90;;;;;;2613614;31;20846;-73
2021/12/20 03:24:08;;;;;;;17.23;4.80;;;8.50;99.90;;;;;;2611881;49;20211;-75
2021/12/20 03:26:34;;;;;;;11.97;3.47;;;8.60;99.90;;;;;;2613834;47;20940;-72
2021/12/20 03:29:00;;;;;;;13.90;4.60;;;8.90;99.90;;;;;;2614568;54;20270;-73
2021/12/20 03:31:27;;;;;;;17.47;3.70;;;9.10;99.90;;;;;;2614321;54;20439;-75
2021/12/20 03:33:52;;;;;;;9.97;3.87;;;9.10;99.90;;;;;;2614883;54;20868;-72
2021/12/20 03:36:18;;;;;;;6.07;3.10;;;8.90;99.90;;;;;;2614889;54;20462;-74
2021/12/20 03:38:44;;;;;;;18.87;4.57;;;9.00;99.90;;;;;;2613539;54;20158;-73
2021/12/20 03:41:10;;;;;;;14.50;3.70;;;9.20;99.90;;;;;;2614205;39;20596;-72
2021/12/20 03:43:36;;;;;;;13.93;4.30;;;9.30;99.90;;;;;;2613892;39;20547;-72
2021/12/20 03:46:03;;;;;;;17.83;4.43;;;9.40;99.90;;;;;;2613773;54;20150;-72
2021/12/20 03:48:30;;;;;;;14.37;5.20;;;9.50;99.90;;;;;;2614714;54;20424;-74
2021/12/20 03:51:00;;;;;;;14.80;4.00;;;8.90;99.90;;;;;;2613456;47;20426;-72
2021/12/20 03:53:26;;;;;;;11.17;3.83;;;9.20;99.90;;;;;;2613878;54;20439;-74
2021/12/20 03:55:51;;;;;;;9.80;3.73;;;9.00;99.90;;;;;;2614455;54;20435;-72
2021/12/20 03:58:17;;;;;;;7.80;4.10;;;9.10;99.90;;;;;;2614492;54;20161;-73
2021/12/20 04:00:43;;;;;;;12.67;5.83;;;9.20;99.90;;;;;;2613750;54;20158;-73
2021/12/20 04:03:12;;;;;;;15.97;4.90;;;9.20;99.90;;;;;;2614863;54;20420;-72
2021/12/20 04:05:40;;;;;;;11.90;3.90;;;9.40;99.90;;;;;;2614118;54;20932;-72
2021/12/20 04:08:07;;;;;;;11.93;3.93;;;9.50;99.90;;;;;;2613904;47;20455;-74
2021/12/20 04:10:34;;;;;;;7.27;3.67;;;9.50;99.90;;;;;;2613407;54;20442;-73
2021/12/20 04:12:59;;;;;;;14.07;3.60;;;9.10;99.90;;;;;;2614216;54;20399;-74
2021/12/20 04:15:25;;;;;;;12.30;4.70;;;9.30;99.90;;;;;;2615169;39;20881;-73
2021/12/20 04:17:51;;;;;;;9.57;4.27;;;9.40;99.90;;;;;;2614589;39;20553;-72
2021/12/20 04:20:17;;;;;;;15.00;4.37;;;9.10;99.90;;;;;;2612712;47;20412;-71
2021/12/20 04:22:43;;;;;;;10.27;4.43;;;9.10;99.90;;;;;;2610861;47;20158;-73
2021/12/20 04:25:09;;;;;;;10.80;3.97;;;9.10;99.90;;;;;;2613978;54;20189;-72
2021/12/20 04:27:36;;;;;;;7.00;4.10;;;9.20;99.90;;;;;;2614298;54;20420;-75
2021/12/20 04:30:09;;;;;;;12.27;4.90;;;9.30;99.90;;;;;;2614235;54;20426;-72
2021/12/20 04:32:36;;;;;;;12.30;4.60;;;9.30;99.90;;;;;;2613495;54;20459;-72
2021/12/20 04:35:02;;;;;;;17.43;4.53;;;9.20;99.90;;;;;;2613235;54;21624;-73
2021/12/20 04:37:28;;;;;;;8.67;4.23;;;9.20;99.90;;;;;;2614098;54;20510;-72
2021/12/20 04:39:55;;;;;;;14.57;3.90;;;9.30;99.90;;;;;;2613983;39;20783;-73
2021/12/20 04:42:20;;;;;;;17.60;4.83;;;9.30;99.90;;;;;;2613913;54;20663;-74
2021/12/20 04:44:46;;;;;;;12.40;4.40;;;9.30;99.90;;;;;;2614051;54;20493;-76
2021/12/20 04:47:12;;;;;;;7.97;3.87;;;9.30;99.90;;;;;;2613456;54;20181;-73
2021/12/20 04:49:38;;;;;;;10.50;4.60;;;9.30;99.90;;;;;;2614505;54;20151;-73
2021/12/20 04:52:05;;;;;;;17.90;5.77;;;9.10;99.90;;;;;;2614451;39;20567;-73
2021/12/20 04:54:30;;;;;;;15.80;4.90;;;8.90;99.90;;;;;;2614002;54;20214;-73
2021/12/20 04:56:56;;;;;;;8.30;4.10;;;8.70;99.90;;;;;;2613247;51;20542;-73
2021/12/20 04:59:22;;;;;;;15.57;4.90;;;8.10;99.90;;;;;;2613809;54;20158;-75
2021/12/20 05:01:48;;;;;;;19.13;4.63;;;8.20;99.90;;;;;;2612780;54;20158;-74
2021/12/20 05:04:13;;;;;;;19.70;6.23;;;8.10;99.90;;;;;;2614856;54;20864;-74
2021/12/20 05:06:39;;;;;;;13.80;6.50;;;8.20;99.90;;;;;;2614246;39;20568;-73
2021/12/20 05:09:06;;;;;;;18.33;5.30;;;7.80;99.90;;;;;;2613440;39;20590;-73
2021/12/20 05:11:34;;;;;;;25.40;5.70;;;7.80;99.90;;;;;;2613201;54;20403;-75
2021/12/20 05:14:00;;;;;;;13.10;5.37;;;7.50;99.90;;;;;;2613437;54;20416;-74
2021/12/20 05:16:27;;;;;;;25.47;5.00;;;7.30;99.90;;;;;;2614153;54;20392;-74
2021/12/20 05:18:53;;;;;;;19.30;4.80;;;7.30;99.90;;;;;;2613584;54;20405;-74
2021/12/20 05:21:18;;;;;;;11.30;4.60;;;7.80;99.90;;;;;;2613059;47;20431;-75
2021/12/20 05:23:44;;;;;;;21.20;4.67;;;7.60;99.90;;;;;;2613930;39;20862;-74
2021/12/20 05:26:10;;;;;;;16.53;4.60;;;7.70;99.90;;;;;;2613933;54;20151;-73
2021/12/20 05:28:36;;;;;;;13.70;4.00;;;7.90;99.90;;;;;;2614284;54;20153;-73
2021/12/20 05:31:01;;;;;;;20.47;5.80;;;8.00;99.90;;;;;;2613177;54;20773;-73
2021/12/20 05:33:28;;;;;;;10.63;4.93;;;8.10;99.90;;;;;;2610825;47;20440;-74
2021/12/20 05:35:54;;;;;;;12.97;5.10;;;7.60;99.90;;;;;;2613518;54;20738;-74
2021/12/20 05:38:20;;;;;;;31.23;7.30;;;7.40;99.90;;;;;;2614457;50;21452;-73
2021/12/20 05:40:46;;;;;;;16.90;5.80;;;7.20;99.90;;;;;;2613727;47;20431;-74
2021/12/20 05:43:12;;;;;;;22.13;4.43;;;7.00;99.90;;;;;;2614412;39;20635;-73
2021/12/20 05:45:38;;;;;;;34.07;5.63;;;6.90;99.90;;;;;;2614889;54;20426;-73
2021/12/20 05:48:04;;;;;;;39.67;6.80;;;6.70;99.90;;;;;;2612996;54;20423;-73
2021/12/20 05:50:30;;;;;;;17.97;5.17;;;6.50;99.90;;;;;;2614552;54;20434;-76
2021/12/20 05:52:56;;;;;;;13.43;4.93;;;6.40;99.90;;;;;;2613813;54;20423;-73
2021/12/20 05:55:22;;;;;;;14.63;6.10;;;6.10;99.90;;;;;;2614692;54;20435;-73
2021/12/20 05:57:48;;;;;;;18.77;4.87;;;5.90;99.90;;;;;;2614943;39;20608;-73
2021/12/20 06:00:18;;;;;;;24.27;7.03;;;5.80;99.90;;;;;;2614135;54;20426;-74
2021/12/20 06:02:47;;;;;;;20.03;6.30;;;5.90;99.90;;;;;;2615082;39;20853;-74
2021/12/20 06:05:13;;;;;;;12.30;6.00;;;5.70;99.90;;;;;;2614452;54;20415;-75
2021/12/20 06:07:41;;;;;;;19.60;7.17;;;5.70;99.90;;;;;;2613817;54;20444;-73
2021/12/20 06:10:12;;;;;;;25.70;7.30;;;5.70;99.90;;;;;;2614325;54;20423;-73
2021/12/20 06:12:39;;;;;;;14.70;5.20;;;5.60;99.90;;;;;;2614659;54;20954;-73
2021/12/20 06:15:06;;;;;;;26.80;6.87;;;5.60;99.90;;;;;;2614586;39;20826;-74
2021/12/20 06:17:34;;;;;;;14.17;5.47;;;5.60;99.90;;;;;;2613935;54;20451;-73
2021/12/20 06:20:01;;;;;;;22.93;6.93;;;5.70;99.90;;;;;;2615256;39;20823;-73
2021/12/20 06:22:26;;;;;;;27.83;6.10;;;5.60;99.90;;;;;;2611606;54;20430;-74
2021/12/20 06:24:52;;;;;;;11.63;5.23;;;5.50;99.90;;;;;;2612835;47;21026;-76
2021/12/20 06:27:18;;;;;;;17.17;7.93;;;5.60;99.90;;;;;;2613615;54;20261;-75
2021/12/20 06:29:44;;;;;;;22.07;7.47;;;5.50;99.90;;;;;;2614314;54;20155;-73
2021/12/20 06:32:09;;;;;;;15.53;5.50;;;5.30;99.90;;;;;;2612426;54;20291;-75
2021/12/20 06:34:35;;;;;;;16.87;5.57;;;5.10;99.90;;;;;;2611444;54;20155;-73
2021/12/20 06:37:02;;;;;;;18.93;6.17;;;5.40;99.90;;;;;;2610837;47;20174;-73
2021/12/20 06:39:30;;;;;;;20.53;6.60;;;5.30;99.90;;;;;;2611827;54;20443;-73
2021/12/20 06:41:57;;;;;;;15.60;5.90;;;5.30;99.90;;;;;;2613168;39;20952;-72
2021/12/20 06:44:23;;;;;;;21.83;5.63;;;5.40;99.90;;;;;;2613259;54;20423;-73
2021/12/20 06:46:50;;;;;;;20.60;5.73;;;5.10;99.90;;;;;;2612548;52;20494;-74
2021/12/20 06:49:15;;;;;;;12.33;6.10;;;5.10;99.90;;;;;;2612299;54;20526;-73
2021/12/20 06:51:43;;;;;;;20.70;6.03;;;5.10;99.90;;;;;;2612128;47;21034;-74
2021/12/20 06:54:11;;;;;;;17.73;5.67;;;5.20;99.90;;;;;;2612150;39;20736;-74
2021/12/20 06:56:37;;;;;;;21.17;6.70;;;5.10;99.90;;;;;;2608596;54;20439;-73
2021/12/20 06:59:03;;;;;;;24.70;6.13;;;4.90;99.90;;;;;;2609166;46;20451;-74
2021/12/20 07:01:29;;;;;;;17.43;5.57;;;4.70;99.90;;;;;;2611511;54;20956;-75
2021/12/20 07:03:55;;;;;;;23.33;7.53;;;4.70;99.90;;;;;;2611211;31;20904;-73
2021/12/20 07:06:21;;;;;;;20.77;6.37;;;4.50;99.90;;;;;;2613699;54;20452;-74
2021/12/20 07:08:47;;;;;;;16.50;6.60;;;4.70;99.90;;;;;;2611680;54;20423;-75
2021/12/20 07:11:14;;;;;;;12.27;6.50;;;4.50;99.90;;;;;;2612650;54;21047;-74
2021/12/20 07:13:41;;;;;;;21.97;6.17;;;4.40;99.90;;;;;;2612962;54;20161;-74
2021/12/20 07:16:07;;;;;;;13.97;5.40;;;4.40;99.90;;;;;;2615126;39;21021;-74
2021/12/20 07:18:34;;;;;;;28.17;6.53;;;4.40;99.90;;;;;;2611779;54;20431;-74
2021/12/20 07:21:00;;;;;;;27.33;7.67;;;4.50;99.90;;;;;;2614560;54;20963;-74
2021/12/20 07:23:26;;;;;;;23.70;7.50;;;4.70;99.90;;;;;;2614056;54;20430;-74
2021/12/20 07:25:52;;;;;;;18.97;6.40;;;4.50;99.90;;;;;;2614978;54;21012;-74
2021/12/20 07:28:18;;;;;;;13.77;6.17;;;4.60;99.90;;;;;;2611877;54;20423;-77
2021/12/20 07:30:45;;;;;;;17.50;6.00;;;4.60;99.90;;;;;;2611228;54;20418;-75
2021/12/20 07:33:11;;;;;;;19.47;5.90;;;4.40;99.90;;;;;;2610905;54;20154;-75
2021/12/20 07:35:40;;;;;;;23.47;5.77;;;4.30;99.90;;;;;;2613240;54;20396;-73
2021/12/20 07:38:10;;;;;;;17.03;6.07;;;4.00;99.90;;;;;;2613916;47;20162;-75
2021/12/20 07:40:36;;;;;;;25.37;7.00;;;3.80;99.90;;;;;;2613708;54;20479;-74
2021/12/20 07:43:02;;;;;;;15.60;6.70;;;3.90;99.90;;;;;;2611265;47;20427;-73
2021/12/20 07:45:29;;;;;;;16.17;5.73;;;4.10;99.90;;;;;;2613564;47;20289;-74
2021/12/20 07:47:55;;;;;;;15.30;5.93;;;4.30;99.90;;;;;;2614024;54;20543;-75
2021/12/20 07:50:22;;;;;;;20.07;7.27;;;4.30;99.90;;;;;;2641629;36;20434;-74
2021/12/20 07:52:49;;;;;;;22.43;7.33;;;4.50;99.90;;;;;;2609744;54;20424;-75
2021/12/20 07:55:16;;;;;;;23.20;7.37;;;4.50;99.90;;;;;;2609635;54;20427;-73
2021/12/20 07:57:42;;;;;;;18.33;7.63;;;4.30;99.90;;;;;;2615151;54;20427;-72
2021/12/20 08:00:11;;;;;;;19.47;7.47;;;4.20;99.90;;;;;;2614451;54;20431;-75
2021/12/20 08:02:41;;;;;;;13.43;7.27;;;4.10;99.90;;;;;;2612265;47;20403;-72
2021/12/20 08:05:07;;;;;;;17.83;6.63;;;4.40;99.90;;;;;;2613533;54;20407;-73
2021/12/20 08:07:33;;;;;;;14.27;6.80;;;4.60;99.90;;;;;;2614517;49;20450;-74
2021/12/20 08:09:59;;;;;;;17.67;7.17;;;4.50;99.90;;;;;;2615511;39;20809;-72
2021/12/20 08:12:24;;;;;;;23.03;7.20;;;4.40;99.90;;;;;;2613438;52;20166;-75
2021/12/20 08:14:50;;;;;;;25.17;9.07;;;4.40;99.90;;;;;;2615215;54;20266;-73
2021/12/20 08:17:16;;;;;;;19.23;8.13;;;4.50;99.90;;;;;;2613032;54;20235;-74
2021/12/20 08:19:42;;;;;;;30.23;10.73;;;4.60;99.90;;;;;;2613354;47;20246;-73
2021/12/20 08:22:08;;;;;;;28.20;9.00;;;4.30;99.90;;;;;;2614711;54;20257;-73
2021/12/20 08:24:33;;;;;;;26.97;9.13;;;4.30;99.90;;;;;;2614836;54;20438;-74
2021/12/20 08:26:59;;;;;;;14.70;8.33;;;5.00;99.90;;;;;;2611755;54;20924;-75
2021/12/20 08:29:26;;;;;;;18.27;8.60;;;5.10;99.90;;;;;;2611440;54;20142;-73
2021/12/20 08:31:52;;;;;;;18.53;7.60;;;5.40;99.90;;;;;;2614741;54;20372;-74
2021/12/20 08:34:18;;;;;;;23.83;8.90;;;5.50;99.90;;;;;;2612131;47;21008;-74
2021/12/20 08:36:44;;;;;;;16.73;7.53;;;5.80;99.90;;;;;;2614004;47;20467;-73
2021/12/20 08:39:15;;;;;;;18.30;9.10;;;5.80;99.90;;;;;;2615052;54;20158;-75
2021/12/20 08:41:42;;;;;;;23.67;8.63;;;5.50;99.90;;;;;;2613704;54;20443;-74
2021/12/20 08:44:07;;;;;;;28.17;9.43;;;5.30;99.90;;;;;;2614268;54;20980;-74
2021/12/20 08:46:33;;;;;;;18.10;7.20;;;5.70;99.90;;;;;;2614669;54;20427;-73
2021/12/20 08:49:00;;;;;;;21.97;7.33;;;6.00;99.90;;;;;;2614793;47;20432;-73
2021/12/20 08:51:26;;;;;;;22.50;8.10;;;6.40;99.90;;;;;;2614642;54;20147;-74
2021/12/20 08:53:52;;;;;;;24.63;8.57;;;6.70;99.90;;;;;;2613487;54;21134;-73
2021/12/20 08:56:18;;;;;;;15.70;7.03;;;7.00;99.90;;;;;;2613231;54;20412;-74
2021/12/20 08:58:45;;;;;;;21.50;7.70;;;7.30;99.90;;;;;;2611507;54;21020;-75
2021/12/20 09:01:12;;;;;;;14.70;7.00;;;7.60;99.90;;;;;;2613777;54;20423;-75
2021/12/20 09:03:38;;;;;;;20.53;9.23;;;7.90;99.90;;;;;;2614284;54;20423;-72
2021/12/20 09:06:04;;;;;;;23.57;8.50;;;7.80;99.90;;;;;;2614966;46;20426;-73
2021/12/20 09:08:31;;;;;;;28.43;10.50;;;7.60;99.90;;;;;;2614617;54;20472;-74
2021/12/20 09:10:57;;;;;;;25.20;8.80;;;8.20;99.90;;;;;;2614025;54;20976;-72
2021/12/20 09:13:23;;;;;;;29.87;11.67;;;8.50;99.90;;;;;;2615224;51;20419;-74
2021/12/20 09:15:49;;;;;;;20.67;8.80;;;8.60;99.90;;;;;;2615413;54;20494;-72
2021/12/20 09:18:16;;;;;;;16.70;9.33;;;9.10;99.90;;;;;;2613164;46;20460;-73
2021/12/20 09:20:43;;;;;;;19.30;9.90;;;9.80;99.90;;;;;;2616080;54;20427;-73
2021/12/20 09:23:11;;;;;;;29.13;11.77;;;10.00;99.90;;;;;;2616242;54;21157;-73
2021/12/20 09:25:41;;;;;;;21.23;10.10;;;10.40;99.90;;;;;;2615395;47;20983;-73
2021/12/20 09:28:10;;;;;;;20.70;9.27;;;10.60;99.90;;;;;;2613334;54;20447;-73
2021/12/20 09:30:38;;;;;;;15.50;8.13;;;10.40;99.90;;;;;;2611604;54;20424;-73
2021/12/20 09:33:04;;;;;;;27.07;9.13;;;10.00;99.90;;;;;;2613959;54;20432;-74
2021/12/20 09:35:31;;;;;;;24.97;9.20;;;10.80;99.90;;;;;;2615706;54;20531;-74
2021/12/20 09:37:57;;;;;;;20.40;6.43;;;12.10;99.90;;;;;;2614177;54;20418;-75
2021/12/20 09:40:33;;;;;;;17.30;8.83;;;13.50;99.90;;;;;;2615879;54;20419;-74
2021/12/20 09:43:13;;;;;;;17.30;9.20;;;14.40;91.20;;;;;;2612157;54;20494;-74
2021/12/20 09:45:44;;;;;;;17.57;9.00;;;15.40;73.60;;;;;;2612992;54;20513;-74
2021/12/20 09:48:11;;;;;;;23.07;8.50;;;16.00;61.20;;;;;;2612406;54;20977;-76
2021/12/20 09:50:37;;;;;;;21.30;9.00;;;16.20;61.60;;;;;;2631369;36;20475;-74
2021/12/20 09:53:07;;;;;;;17.43;9.20;;;15.60;56.80;;;;;;2612359;54;20963;-73
2021/12/20 09:55:34;;;;;;;17.33;7.10;;;15.30;60.80;;;;;;2614751;54;20424;-73
2021/12/20 09:58:02;;;;;;;20.10;8.40;;;15.10;57.80;;;;;;2615557;54;20433;-73
2021/12/20 10:00:28;;;;;;;21.33;7.13;;;15.20;57.00;;;;;;2613859;54;20941;-74
2021/12/20 10:02:55;;;;;;;21.77;6.70;;;15.90;56.80;;;;;;2615288;47;20424;-74
2021/12/20 10:05:21;;;;;;;20.30;7.70;;;16.60;54.10;;;;;;2613222;51;20519;-74
2021/12/20 10:07:50;;;;;;;20.10;6.87;;;17.00;51.10;;;;;;2614854;54;20427;-72
2021/12/20 10:10:44;;;;;;;11.97;6.83;;;17.10;51.70;;;;;;2614624;54;20170;-73
2021/12/20 10:13:24;;;;;;;19.77;6.73;;;17.50;49.80;;;;;;2615073;47;20431;-76
2021/12/20 10:15:50;;;;;;;24.93;8.17;;;17.30;49.70;;;;;;2614945;54;20439;-74
2021/12/20 10:18:16;;;;;;;11.07;6.37;;;17.30;50.20;;;;;;2614950;39;20806;-74
2021/12/20 10:20:50;;;;;;;25.83;6.40;;;17.00;49.40;;;;;;2614029;39;20838;-75
2021/12/20 10:23:23;;;;;;;18.77;6.40;;;17.30;49.20;;;;;;2614284;54;20392;-74
2021/12/20 10:26:00;;;;;;;17.60;5.63;;;17.60;50.10;;;;;;2616062;39;20786;-73
2021/12/20 10:28:37;;;;;;;22.33;6.80;;;17.30;48.30;;;;;;2614554;54;21023;-74
2021/12/20 10:31:10;;;;;;;14.90;5.67;;;17.20;48.30;;;;;;2614193;54;20447;-76
2021/12/20 10:33:37;;;;;;;18.27;6.07;;;17.10;49.00;;;;;;2615256;31;20882;-73
2021/12/20 10:36:10;;;;;;;11.30;4.20;;;17.10;48.10;;;;;;2614675;54;20422;-73
2021/12/20 10:38:49;;;;;;;15.67;5.50;;;17.50;47.10;;;;;;2612583;47;20455;-73
2021/12/20 10:41:24;;;;;;;13.47;4.30;;;16.50;48.10;;;;;;2614884;54;20534;-75
2021/12/20 10:43:58;;;;;;;13.97;4.70;;;16.30;49.30;;;;;;2612515;47;20410;-74
2021/12/20 10:46:25;;;;;;;13.63;5.07;;;16.10;49.70;;;;;;2615314;39;20884;-74
2021/12/20 10:49:11;;;;;;;10.37;5.23;;;16.50;49.30;;;;;;2615031;54;20478;-74
2021/12/20 10:51:40;;;;;;;14.23;5.30;;;17.10;46.40;;;;;;2615215;54;20511;-73
2021/12/20 10:54:10;;;;;;;10.13;4.40;;;17.60;46.10;;;;;;2613720;54;20463;-73
2021/12/20 10:56:40;;;;;;;10.70;5.20;;;17.80;45.40;;;;;;2613932;47;20408;-74
2021/12/20 10:59:10;;;;;;;14.97;6.63;;;18.80;43.30;;;;;;2614775;46;20431;-74
2021/12/20 11:04:35;;;;;;;16.03;6.10;;;18.80;42.90;;;;;;2614073;47;20439;-73
2021/12/20 11:09:39;;;;;;;15.20;6.10;;;18.00;43.80;;;;;;2614468;47;20482;-74
2021/12/20 11:12:08;;;;;;;11.77;5.60;;;18.10;43.20;;;;;;2614016;47;20427;-74
2021/12/20 11:14:48;;;;;;;13.43;4.07;;;18.40;42.20;;;;;;2614816;54;20451;-74
2021/12/20 11:17:17;;;;;;;14.23;4.90;;;18.60;40.90;;;;;;2612523;54;20443;-75
2021/12/20 11:19:48;;;;;;;8.73;4.30;;;20.00;39.10;;;;;;2611880;54;20435;-75
2021/12/20 11:22:20;;;;;;;11.93;3.80;;;19.20;39.30;;;;;;2611868;47;20514;-73
2021/12/20 11:24:57;;;;;;;9.53;4.27;;;18.60;39.50;;;;;;2610741;54;20419;-73
2021/12/20 11:27:23;;;;;;;11.83;5.10;;;20.30;35.70;;;;;;2613149;54;21628;-72
2021/12/20 11:29:51;;;;;;;8.57;3.60;;;20.00;36.70;;;;;;2613247;47;20411;-73
2021/12/20 11:32:19;;;;;;;12.00;4.87;;;19.60;38.00;;;;;;2614020;54;20211;-73
2021/12/20 11:34:46;;;;;;;10.27;4.40;;;19.30;37.60;;;;;;2616010;54;20452;-73
2021/12/20 11:37:18;;;;;;;8.67;3.70;;;18.00;37.40;;;;;;2614312;54;20461;-75
2021/12/20 11:39:46;;;;;;;12.27;4.40;;;17.60;38.50;;;;;;2614922;54;20438;-74
2021/12/20 11:42:12;;;;;;;18.07;4.57;;;16.50;40.50;;;;;;2615116;39;20809;-74
2021/12/20 11:44:40;;;;;;;9.27;4.57;;;15.10;42.60;;;;;;2615171;54;20448;-73
2021/12/20 11:47:15;;;;;;;6.17;3.50;;;16.70;39.90;;;;;;2613765;47;20527;-75
2021/12/20 11:49:40;;;;;;;9.23;3.97;;;17.60;37.50;;;;;;2614558;54;20454;-74
2021/12/20 11:52:18;;;;;;;8.10;3.93;;;17.40;39.50;;;;;;2613404;54;20392;-75
2021/12/20 11:54:52;;;;;;;9.10;3.70;;;18.10;36.00;;;;;;2616080;54;21109;-74
2021/12/20 11:57:38;;;;;;;8.20;3.90;;;18.40;37.10;;;;;;2614263;46;20968;-73
2021/12/20 12:00:08;;;;;;;7.13;3.10;;;19.20;35.90;;;;;;2612760;47;20416;-73
2021/12/20 12:02:43;;;;;;;7.50;3.47;;;19.10;35.10;;;;;;2612974;54;20404;-74
2021/12/20 12:05:14;;;;;;;6.27;2.93;;;18.80;34.90;;;;;;2615064;47;20431;-73
2021/12/20 12:07:41;;;;;;;8.00;3.43;;;18.40;34.40;;;;;;2614631;54;20432;-73
2021/12/20 12:10:16;;;;;;;10.53;5.03;;;18.80;35.20;;;;;;2613795;47;20415;-76
2021/12/20 12:12:46;;;;;;;7.33;2.90;;;19.40;33.30;;;;;;2611483;54;20438;-75
2021/12/20 12:15:32;;;;;;;7.77;2.47;;;19.60;32.70;;;;;;2613609;54;20595;-76
2021/12/20 12:18:04;;;;;;;14.03;3.43;;;19.80;32.10;;;;;;2611393;39;20820;-73
2021/12/20 12:20:49;;;;;;;3.27;2.30;;;19.30;31.70;;;;;;2613453;54;20423;-74
2021/12/20 12:23:25;;;;;;;6.27;2.90;;;19.20;31.60;;;;;;2613483;54;20426;-73
2021/12/20 12:26:02;;;;;;;4.87;2.50;;;17.90;33.10;;;;;;2613556;54;20458;-73
2021/12/20 12:28:54;;;;;;;9.00;2.80;;;16.10;35.90;;;;;;2614919;54;20419;-73
2021/12/20 12:31:20;;;;;;;6.07;2.37;;;15.90;34.90;;;;;;2611735;54;20450;-73
2021/12/20 12:33:46;;;;;;;4.37;2.23;;;15.40;35.50;;;;;;2614420;54;20491;-74
2021/12/20 12:36:23;;;;;;;8.37;2.73;;;16.30;34.50;;;;;;2614084;39;20839;-74
2021/12/20 12:38:56;;;;;;;4.70;1.90;;;16.30;34.50;;;;;;2615557;54;20435;-74
2021/12/20 12:41:26;;;;;;;4.97;2.50;;;16.40;33.30;;;;;;2613831;54;20419;-73
2021/12/20 12:44:15;;;;;;;6.57;2.60;;;17.10;32.80;;;;;;2614769;54;20443;-74
2021/12/20 12:46:41;;;;;;;10.13;3.00;;;17.30;32.90;;;;;;2614830;47;20442;-77
2021/12/20 12:49:26;;;;;;;5.60;2.53;;;17.20;33.10;;;;;;2615116;47;20953;-74
2021/12/20 12:52:04;;;;;;;5.90;2.27;;;17.70;32.50;;;;;;2618028;39;20804;-75
2021/12/20 12:54:33;;;;;;;5.23;2.60;;;17.50;32.60;;;;;;2617753;54;20479;-73
2021/12/20 12:57:15;;;;;;;7.23;2.77;;;17.50;33.50;;;;;;2616772;54;20395;-74
2021/12/20 13:00:00;;;;;;;5.07;2.10;;;19.00;30.60;;;;;;2616144;47;20427;-74
2021/12/20 13:02:30;;;;;;;5.83;2.70;;;18.00;31.50;;;;;;2614314;54;20450;-75
2021/12/20 13:04:58;;;;;;;4.77;1.83;;;17.60;32.00;;;;;;2616104;47;20415;-73
2021/12/20 13:07:28;;;;;;;3.43;1.80;;;17.10;31.90;;;;;;2615945;54;20478;-74
2021/12/20 13:09:58;;;;;;;2.17;1.97;;;15.30;34.30;;;;;;2614968;54;20411;-76
2021/12/20 13:15:07;;;;;;;3.53;2.30;;;15.80;33.50;;;;;;2614204;54;20458;-74
2021/12/20 13:17:44;;;;;;;4.80;2.23;;;16.20;32.90;;;;;;2615503;47;20441;-73